Terminal Aerodrome Forecast
Issued by NWS

Home | Current Version | Previous Version | Text Only | Print | Product List | Glossary On
Versions: 1 2 3 4 5 6 7 8 9 10 11 12 13 14 15 16 17 18 19 20 21 22 23 24 25 26 27 28 29
080
FTUS44 KFWD 311123
TAFFTW
TAF
KFTW 311123Z 3112/0112 17008KT P6SM BKN250
      TEMPO 3112/3114 BKN008
     FM312000 16011KT P6SM VCTS BKN040CB
     FM010200 15010KT P6SM BKN100 OVC250
     FM011000 14009KT 6SM -SHRA BR VCTS BKN025CB=

USA.gov is the U.S. government's official web portal to all federal, state and local government web resources and services.